Time;durP1;ratioP1;P1;durP2;ratioP2;P2;SDS_P1;SDS_P2;PMS_P1;PMS_P2;Temp;Humidity;BMP_temperature;BMP_pressure;BME280_temperature;BME280_humidity;BME280_pressure;Samples;Min_cycle;Max_cycle;Signal;HPM_P1;HPM_P2
2022/11/24 00:01:29;;;;;;;9.40;2.90;;;5.90;99.90;;;;;;5029380;28;20663;-65
2022/11/24 00:03:59;;;;;;;9.63;2.80;;;6.00;99.90;;;;;;5032296;28;20273;-65
2022/11/24 00:06:26;;;;;;;8.30;2.90;;;6.00;99.90;;;;;;5026681;28;20428;-65
2022/11/24 00:08:52;;;;;;;21.63;3.73;;;6.00;99.90;;;;;;5027408;28;20432;-65
2022/11/24 00:11:21;;;;;;;7.87;3.20;;;6.10;99.90;;;;;;5032183;28;21136;-66
2022/11/24 00:13:47;;;;;;;9.37;3.20;;;6.20;99.90;;;;;;5023882;28;20980;-65
2022/11/24 00:16:18;;;;;;;5.37;3.00;;;6.20;99.90;;;;;;5030030;28;20432;-66
2022/11/24 00:18:46;;;;;;;6.57;3.10;;;6.30;99.90;;;;;;5032789;28;20499;-65
2022/11/24 00:21:12;;;;;;;6.43;3.03;;;6.20;99.90;;;;;;5032261;28;20457;-65
2022/11/24 00:23:38;;;;;;;7.20;3.40;;;6.10;99.90;;;;;;5031632;28;20444;-66
2022/11/24 00:26:12;;;;;;;4.10;2.53;;;6.10;99.90;;;;;;5028952;28;20436;-66
2022/11/24 00:28:38;;;;;;;6.87;2.57;;;6.00;99.90;;;;;;5017096;28;20200;-65
2022/11/24 00:31:13;;;;;;;6.07;3.87;;;5.90;99.90;;;;;;5031830;28;20855;-65
2022/11/24 00:33:39;;;;;;;7.30;2.50;;;5.90;99.90;;;;;;5026008;28;20989;-65
2022/11/24 00:36:05;;;;;;;7.80;3.80;;;5.90;99.90;;;;;;5025266;28;20561;-66
2022/11/24 00:38:30;;;;;;;6.10;3.60;;;5.90;99.90;;;;;;5028593;28;20429;-65
2022/11/24 00:40:56;;;;;;;7.40;3.00;;;5.80;99.90;;;;;;5024786;28;20182;-65
2022/11/24 00:43:21;;;;;;;5.97;2.67;;;5.80;99.90;;;;;;5032357;28;20212;-65
2022/11/24 00:45:47;;;;;;;7.07;2.50;;;5.80;99.90;;;;;;5029090;28;20183;-65
2022/11/24 00:48:12;;;;;;;7.57;4.73;;;5.80;99.90;;;;;;5042632;28;20188;-66
2022/11/24 00:50:38;;;;;;;8.50;3.77;;;5.70;99.90;;;;;;5034252;28;20182;-65
2022/11/24 00:53:03;;;;;;;7.60;2.80;;;5.70;99.90;;;;;;5031749;28;20217;-65
2022/11/24 00:55:29;;;;;;;11.27;3.00;;;5.70;99.90;;;;;;5044071;28;20190;-65
2022/11/24 00:57:55;;;;;;;6.13;2.60;;;5.60;99.90;;;;;;5036567;28;20180;-65
2022/11/24 01:00:20;;;;;;;8.83;2.53;;;5.60;99.90;;;;;;5041696;28;20185;-66
2022/11/24 01:02:46;;;;;;;5.20;2.70;;;5.60;99.90;;;;;;5039666;28;20241;-66
2022/11/24 01:05:11;;;;;;;6.97;2.87;;;5.50;99.90;;;;;;5035463;28;20175;-66
2022/11/24 01:07:37;;;;;;;14.57;2.90;;;5.50;99.90;;;;;;5043674;28;20186;-65
2022/11/24 01:10:03;;;;;;;4.07;2.53;;;5.50;99.90;;;;;;5044815;28;20215;-66
2022/11/24 01:12:29;;;;;;;6.67;2.77;;;5.50;99.90;;;;;;5030170;28;20206;-66
2022/11/24 01:14:55;;;;;;;11.30;3.03;;;5.40;99.90;;;;;;5041709;28;20432;-66
2022/11/24 01:17:21;;;;;;;7.63;2.73;;;5.50;99.90;;;;;;5033463;28;20451;-66
2022/11/24 01:19:48;;;;;;;7.27;2.90;;;5.40;99.90;;;;;;5040046;28;20300;-67
2022/11/24 01:22:14;;;;;;;8.47;2.60;;;5.50;99.90;;;;;;5038090;28;20201;-66
2022/11/24 01:24:40;;;;;;;7.93;3.63;;;5.50;99.90;;;;;;5032250;28;21253;-66
2022/11/24 01:27:05;;;;;;;5.43;2.53;;;5.50;99.90;;;;;;5038812;28;20447;-66
2022/11/24 01:29:31;;;;;;;6.90;2.73;;;5.50;99.90;;;;;;5036868;28;20185;-66
2022/11/24 01:31:56;;;;;;;7.80;2.97;;;5.50;99.90;;;;;;5044645;28;20279;-67
2022/11/24 01:34:22;;;;;;;4.23;2.70;;;5.50;99.90;;;;;;5043756;28;20551;-67
2022/11/24 01:36:48;;;;;;;9.00;2.67;;;5.50;99.90;;;;;;5032010;28;20193;-67
2022/11/24 01:39:13;;;;;;;8.93;2.70;;;5.50;99.90;;;;;;5032521;28;20193;-67
2022/11/24 01:41:39;;;;;;;3.80;2.20;;;5.50;99.90;;;;;;5027683;28;20190;-66
2022/11/24 01:44:21;;;;;;;9.53;2.67;;;5.60;99.90;;;;;;5030024;28;20236;-67
2022/11/24 01:46:51;;;;;;;7.70;3.13;;;5.70;99.90;;;;;;5027238;28;20191;-66
2022/11/24 01:49:22;;;;;;;6.00;2.30;;;5.80;99.90;;;;;;5037331;28;20968;-66
2022/11/24 01:51:52;;;;;;;10.27;3.07;;;5.80;99.90;;;;;;5037790;28;20473;-66
2022/11/24 01:54:41;;;;;;;9.63;2.67;;;5.80;99.90;;;;;;5039005;28;20920;-67
2022/11/24 01:57:20;;;;;;;17.40;3.63;;;5.90;99.90;;;;;;5026590;28;20464;-66
2022/11/24 01:59:49;;;;;;;7.00;2.93;;;6.00;99.90;;;;;;5031797;28;20888;-67
2022/11/24 02:02:16;;;;;;;4.27;2.53;;;6.00;99.90;;;;;;5031051;28;20460;-66
2022/11/24 02:04:43;;;;;;;9.80;2.83;;;6.10;99.90;;;;;;5029177;28;20798;-67
2022/11/24 02:07:10;;;;;;;4.57;2.17;;;6.20;99.90;;;;;;5027267;28;20921;-67
2022/11/24 02:09:50;;;;;;;7.30;2.53;;;6.30;99.90;;;;;;5028731;28;20498;-66
2022/11/24 02:12:15;;;;;;;13.33;3.30;;;6.30;99.90;;;;;;5028792;28;20468;-67
2022/11/24 02:14:43;;;;;;;7.33;2.03;;;6.40;99.90;;;;;;5029247;28;20972;-66
2022/11/24 02:17:09;;;;;;;5.50;2.30;;;6.40;99.90;;;;;;5030902;28;20253;-67
2022/11/24 02:19:54;;;;;;;5.67;2.40;;;6.40;99.90;;;;;;5029943;28;20472;-67
2022/11/24 02:22:37;;;;;;;7.97;1.83;;;6.40;99.90;;;;;;5029417;28;20201;-67
2022/11/24 02:25:09;;;;;;;15.57;2.50;;;6.40;99.90;;;;;;5028928;28;20521;-67
2022/11/24 02:27:35;;;;;;;7.23;2.30;;;6.30;99.90;;;;;;5033128;28;21062;-66
2022/11/24 02:30:00;;;;;;;6.70;2.57;;;6.30;99.90;;;;;;5043385;28;20436;-66
2022/11/24 02:32:28;;;;;;;3.17;2.00;;;6.20;99.90;;;;;;5032220;28;20259;-66
2022/11/24 02:35:01;;;;;;;5.77;2.20;;;6.20;99.90;;;;;;5040283;28;20186;-66
2022/11/24 02:37:26;;;;;;;5.80;1.90;;;6.10;99.90;;;;;;5042307;28;20436;-67
2022/11/24 02:39:52;;;;;;;4.40;1.77;;;6.10;99.90;;;;;;5041046;28;20440;-66
2022/11/24 02:42:17;;;;;;;6.93;2.03;;;6.00;99.90;;;;;;5034445;28;20198;-66
2022/11/24 02:44:49;;;;;;;9.90;2.00;;;6.00;99.90;;;;;;5042357;28;20523;-66
2022/11/24 02:47:15;;;;;;;3.80;2.10;;;5.90;99.90;;;;;;5032576;28;20193;-67
2022/11/24 02:49:41;;;;;;;9.07;3.77;;;5.90;99.90;;;;;;5033476;28;20945;-67
2022/11/24 02:52:06;;;;;;;8.73;2.10;;;5.90;99.90;;;;;;5034687;28;20202;-66
2022/11/24 02:54:32;;;;;;;3.50;1.70;;;5.90;99.90;;;;;;5040510;28;20186;-67
2022/11/24 02:56:58;;;;;;;7.03;2.33;;;5.90;99.90;;;;;;5041526;28;20175;-67
2022/11/24 02:59:23;;;;;;;5.30;1.70;;;5.90;99.90;;;;;;5038567;28;20182;-66
2022/11/24 03:01:49;;;;;;;4.77;1.50;;;5.90;99.90;;;;;;5040001;28;20255;-67
2022/11/24 03:04:14;;;;;;;11.77;1.83;;;5.80;99.90;;;;;;5042332;28;20707;-67
2022/11/24 03:06:42;;;;;;;2.80;2.03;;;5.80;99.90;;;;;;5036043;28;20569;-66
2022/11/24 03:09:08;;;;;;;7.80;1.90;;;5.80;99.90;;;;;;5041094;28;20267;-66
2022/11/24 03:11:33;;;;;;;5.07;1.87;;;5.80;99.90;;;;;;5036048;28;20521;-67
2022/11/24 03:13:59;;;;;;;11.23;2.50;;;5.80;99.90;;;;;;5038609;28;20471;-66
2022/11/24 03:16:24;;;;;;;7.30;1.93;;;5.80;99.90;;;;;;5023113;28;20222;-67
2022/11/24 03:18:51;;;;;;;5.27;2.10;;;5.80;99.90;;;;;;5044261;28;20177;-66
2022/11/24 03:21:17;;;;;;;7.77;2.07;;;5.70;99.90;;;;;;5041919;28;20652;-65
2022/11/24 03:23:42;;;;;;;6.03;1.93;;;5.70;99.90;;;;;;5042288;28;20444;-67
2022/11/24 03:26:09;;;;;;;5.93;2.00;;;5.70;99.90;;;;;;5036029;28;20178;-67
2022/11/24 03:28:35;;;;;;;3.10;1.97;;;5.70;99.90;;;;;;5038630;28;20206;-66
2022/11/24 03:31:01;;;;;;;4.60;2.23;;;5.70;99.90;;;;;;5037253;28;20473;-67
2022/11/24 03:33:26;;;;;;;5.90;2.13;;;5.60;99.90;;;;;;5045708;28;20198;-67
2022/11/24 03:35:52;;;;;;;6.93;2.30;;;5.60;99.90;;;;;;5041074;28;20463;-67
2022/11/24 03:38:17;;;;;;;3.53;1.70;;;5.60;99.90;;;;;;5040000;28;20174;-66
2022/11/24 03:40:43;;;;;;;2.63;1.90;;;5.60;99.90;;;;;;5031698;28;20183;-67
2022/11/24 03:43:08;;;;;;;7.53;4.73;;;5.60;99.90;;;;;;5043216;28;20636;-66
2022/11/24 03:45:34;;;;;;;6.60;2.57;;;5.50;99.90;;;;;;5038818;28;20181;-67
2022/11/24 03:48:00;;;;;;;2.33;1.80;;;5.50;99.90;;;;;;5042885;28;20190;-67
2022/11/24 03:50:26;;;;;;;3.83;2.40;;;5.50;99.90;;;;;;5041815;28;20190;-67
2022/11/24 03:52:51;;;;;;;7.83;2.30;;;5.50;99.90;;;;;;5040784;28;20836;-66
2022/11/24 03:55:17;;;;;;;2.63;2.23;;;5.50;99.90;;;;;;5031198;28;20183;-67
2022/11/24 03:57:42;;;;;;;8.20;2.20;;;5.50;99.90;;;;;;5044149;28;20188;-67
2022/11/24 04:00:09;;;;;;;3.17;1.50;;;5.50;99.90;;;;;;5046793;28;20216;-66
2022/11/24 04:02:34;;;;;;;5.07;2.07;;;5.40;99.90;;;;;;5042999;28;20233;-67
2022/11/24 04:05:00;;;;;;;4.67;1.60;;;5.40;99.90;;;;;;5028932;28;20484;-66
2022/11/24 04:07:25;;;;;;;6.40;1.77;;;5.40;99.90;;;;;;5031805;28;20193;-68
2022/11/24 04:09:51;;;;;;;3.67;2.10;;;5.40;99.90;;;;;;5032751;28;20186;-66
2022/11/24 04:15:00;;;;;;;3.83;1.90;;;5.40;99.90;;;;;;5032216;28;20272;-67
2022/11/24 04:17:27;;;;;;;3.17;2.07;;;5.40;99.90;;;;;;5032780;28;20428;-67
2022/11/24 04:19:52;;;;;;;5.50;2.10;;;5.40;99.90;;;;;;5032672;28;20257;-67
2022/11/24 04:22:18;;;;;;;7.07;2.40;;;5.40;99.90;;;;;;5032025;28;20495;-66
2022/11/24 04:24:44;;;;;;;4.30;2.10;;;5.40;99.90;;;;;;5028341;28;20236;-67
2022/11/24 04:27:09;;;;;;;13.50;2.30;;;5.50;99.90;;;;;;5025947;28;20549;-67
2022/11/24 04:29:34;;;;;;;6.50;1.70;;;5.50;99.90;;;;;;5047576;28;20182;-66
2022/11/24 04:32:00;;;;;;;5.70;2.17;;;5.50;99.90;;;;;;5038871;28;20694;-66
2022/11/24 04:34:26;;;;;;;4.93;2.20;;;5.60;99.90;;;;;;5035855;28;20181;-67
2022/11/24 04:36:51;;;;;;;8.87;2.90;;;5.60;99.90;;;;;;5040985;28;20177;-67
2022/11/24 04:39:17;;;;;;;8.47;2.90;;;5.60;99.90;;;;;;5038979;28;20285;-66
2022/11/24 04:41:42;;;;;;;5.07;2.37;;;5.70;99.90;;;;;;5043819;28;20697;-66
2022/11/24 04:44:08;;;;;;;12.33;2.93;;;5.60;99.90;;;;;;5045939;28;20182;-67
2022/11/24 04:46:33;;;;;;;7.07;1.87;;;5.60;99.90;;;;;;5028581;28;20193;-66
2022/11/24 04:49:00;;;;;;;6.20;2.77;;;5.60;99.90;;;;;;5036960;28;20182;-67
2022/11/24 04:51:25;;;;;;;4.47;2.70;;;5.60;99.90;;;;;;5039583;28;20296;-67
2022/11/24 04:53:51;;;;;;;6.03;2.10;;;5.60;99.90;;;;;;5036749;28;20554;-67
2022/11/24 04:56:16;;;;;;;5.47;1.83;;;5.60;99.90;;;;;;5034616;28;20183;-66
2022/11/24 04:58:42;;;;;;;4.53;2.70;;;5.60;99.90;;;;;;5043822;28;20174;-65
2022/11/24 05:01:08;;;;;;;6.13;3.20;;;5.60;99.90;;;;;;5047632;28;20228;-67
2022/11/24 05:03:35;;;;;;;5.87;3.00;;;5.60;99.90;;;;;;5039840;28;20276;-66
2022/11/24 05:06:01;;;;;;;4.50;1.90;;;5.60;99.90;;;;;;5042134;28;20439;-66
2022/11/24 05:08:26;;;;;;;9.37;2.30;;;5.60;99.90;;;;;;5032958;28;20435;-66
2022/11/24 05:10:52;;;;;;;7.40;2.70;;;5.60;99.90;;;;;;5039044;28;20208;-66
2022/11/24 05:13:17;;;;;;;4.50;2.80;;;5.60;99.90;;;;;;5039890;28;20202;-66
2022/11/24 05:15:43;;;;;;;12.80;2.93;;;5.60;99.90;;;;;;5030144;28;20239;-67
2022/11/24 05:18:13;;;;;;;6.97;3.10;;;5.60;99.90;;;;;;5038395;28;20185;-66
2022/11/24 05:20:39;;;;;;;10.13;3.83;;;5.50;99.90;;;;;;5032158;28;20192;-67
2022/11/24 05:23:06;;;;;;;5.63;2.67;;;5.50;99.90;;;;;;5041433;28;20903;-66
2022/11/24 05:25:33;;;;;;;10.60;2.60;;;5.60;99.90;;;;;;5040257;28;20309;-67
2022/11/24 05:28:04;;;;;;;8.20;2.47;;;5.60;99.90;;;;;;5032704;28;20876;-67
2022/11/24 05:30:30;;;;;;;3.90;2.97;;;5.60;99.90;;;;;;5031494;28;20436;-66
2022/11/24 05:32:57;;;;;;;5.90;1.77;;;5.50;99.90;;;;;;5044971;28;20534;-67
2022/11/24 05:35:23;;;;;;;7.70;2.70;;;5.50;99.90;;;;;;5036417;28;20978;-67
2022/11/24 05:37:48;;;;;;;8.93;2.77;;;5.50;99.90;;;;;;5032292;28;20462;-66
2022/11/24 05:40:14;;;;;;;5.63;2.80;;;5.60;99.90;;;;;;5033558;28;20206;-66
2022/11/24 05:42:40;;;;;;;10.07;4.70;;;5.60;99.90;;;;;;5043569;28;20267;-67
2022/11/24 05:45:17;;;;;;;6.43;2.90;;;5.50;99.90;;;;;;5039298;28;20174;-67
2022/11/24 05:47:43;;;;;;;10.20;3.43;;;5.50;99.90;;;;;;5038575;28;20189;-67
2022/11/24 05:50:11;;;;;;;4.83;2.70;;;5.50;99.90;;;;;;5035430;28;20491;-67
2022/11/24 05:52:37;;;;;;;10.47;2.13;;;5.50;99.90;;;;;;5038095;28;20209;-66
2022/11/24 05:55:03;;;;;;;11.90;4.70;;;5.60;99.90;;;;;;5039989;28;20429;-67
2022/11/24 05:57:29;;;;;;;7.03;3.47;;;5.60;99.90;;;;;;5031786;28;20436;-67
2022/11/24 05:59:54;;;;;;;9.43;2.57;;;5.60;99.90;;;;;;5037714;28;20428;-66
2022/11/24 06:02:20;;;;;;;5.80;2.40;;;5.60;99.90;;;;;;5030399;28;20198;-66
2022/11/24 06:04:45;;;;;;;10.90;2.27;;;5.70;99.90;;;;;;5028083;28;20692;-66
2022/11/24 06:07:11;;;;;;;15.97;3.97;;;5.70;99.90;;;;;;5029983;28;20675;-66
2022/11/24 06:09:39;;;;;;;8.77;2.83;;;5.90;99.90;;;;;;5027385;28;20606;-67
2022/11/24 06:12:09;;;;;;;13.30;4.20;;;5.90;99.90;;;;;;5028995;28;20819;-66
2022/11/24 06:14:36;;;;;;;21.27;7.50;;;6.00;99.90;;;;;;5031012;28;20437;-67
2022/11/24 06:17:02;;;;;;;10.67;3.00;;;6.00;99.90;;;;;;5026840;28;20507;-68
2022/11/24 06:19:28;;;;;;;7.03;2.30;;;6.10;99.90;;;;;;5030487;28;20968;-66
2022/11/24 06:21:53;;;;;;;10.60;3.00;;;6.20;99.90;;;;;;5025886;28;20461;-67
2022/11/24 06:24:19;;;;;;;6.30;2.30;;;6.20;99.90;;;;;;5030492;28;20178;-67
2022/11/24 06:26:44;;;;;;;10.40;3.00;;;6.20;99.90;;;;;;5029742;28;20178;-67
2022/11/24 06:29:10;;;;;;;9.00;2.77;;;6.20;99.90;;;;;;5032095;28;20206;-67
2022/11/24 06:31:36;;;;;;;5.57;2.87;;;6.20;99.90;;;;;;5036607;28;20239;-66
2022/11/24 06:34:06;;;;;;;10.83;2.60;;;6.20;99.90;;;;;;5033790;28;20210;-67
2022/11/24 06:36:31;;;;;;;9.77;3.07;;;6.20;99.90;;;;;;5034866;28;20178;-67
2022/11/24 06:38:59;;;;;;;11.17;2.83;;;6.20;99.90;;;;;;5027807;28;20490;-65
2022/11/24 06:41:24;;;;;;;8.50;3.30;;;6.30;99.90;;;;;;5025545;28;20237;-66
2022/11/24 06:43:50;;;;;;;9.03;2.93;;;6.30;99.90;;;;;;5027274;28;20468;-68
2022/11/24 06:46:15;;;;;;;7.70;2.30;;;6.30;99.90;;;;;;5021793;28;20178;-68
2022/11/24 06:48:41;;;;;;;9.40;3.07;;;6.30;99.90;;;;;;5028342;28;20273;-68
2022/11/24 06:51:09;;;;;;;12.00;3.73;;;6.30;99.90;;;;;;5027401;28;20195;-69
2022/11/24 06:53:36;;;;;;;14.27;3.60;;;6.30;99.90;;;;;;5023095;28;20635;-69
2022/11/24 06:56:07;;;;;;;8.17;2.90;;;6.40;99.90;;;;;;5028214;28;20441;-66
2022/11/24 06:58:33;;;;;;;9.37;3.63;;;6.40;99.90;;;;;;5029930;28;20437;-66
2022/11/24 07:00:58;;;;;;;9.87;2.53;;;6.40;99.90;;;;;;5025498;28;20428;-66
2022/11/24 07:03:24;;;;;;;5.13;3.20;;;6.40;99.90;;;;;;5028092;28;20189;-67
2022/11/24 07:05:56;;;;;;;6.53;2.53;;;6.40;99.90;;;;;;5029356;28;20182;-66
2022/11/24 07:08:22;;;;;;;5.23;2.60;;;6.40;99.90;;;;;;5024895;28;20206;-67
2022/11/24 07:10:47;;;;;;;11.30;2.90;;;6.40;99.90;;;;;;5030452;28;21005;-67
2022/11/24 07:13:13;;;;;;;13.07;3.47;;;6.40;99.90;;;;;;5034705;28;20629;-66
2022/11/24 07:15:38;;;;;;;8.10;3.00;;;6.40;99.90;;;;;;5031226;28;20645;-66
2022/11/24 07:18:05;;;;;;;16.60;3.43;;;6.40;99.90;;;;;;5032830;28;20198;-66
2022/11/24 07:20:30;;;;;;;9.07;2.80;;;6.50;99.90;;;;;;5032597;28;21114;-66
2022/11/24 07:22:57;;;;;;;12.27;4.60;;;6.50;99.90;;;;;;5028492;28;20293;-66
2022/11/24 07:25:24;;;;;;;11.77;5.27;;;6.50;99.90;;;;;;5036806;28;20182;-66
2022/11/24 07:27:57;;;;;;;11.10;3.57;;;6.50;99.90;;;;;;5038412;28;20433;-66
2022/11/24 07:30:24;;;;;;;8.80;3.67;;;6.60;99.90;;;;;;5027611;28;20531;-66
2022/11/24 07:32:49;;;;;;;16.13;4.90;;;6.60;99.90;;;;;;5033335;28;20974;-65
2022/11/24 07:35:15;;;;;;;8.33;3.43;;;6.70;99.90;;;;;;5030864;28;20445;-65
2022/11/24 07:37:40;;;;;;;10.73;3.67;;;6.70;99.90;;;;;;5032714;28;20186;-66
2022/11/24 07:40:07;;;;;;;7.43;2.93;;;6.70;99.90;;;;;;5024631;28;20217;-66
2022/11/24 07:42:32;;;;;;;13.43;3.10;;;6.70;99.90;;;;;;5030901;28;20210;-66
2022/11/24 07:44:58;;;;;;;11.33;3.57;;;6.80;99.90;;;;;;5027270;28;20873;-66
2022/11/24 07:47:23;;;;;;;11.17;3.87;;;6.80;99.90;;;;;;5029036;28;20198;-66
2022/11/24 07:49:49;;;;;;;9.20;3.77;;;6.70;99.90;;;;;;5036731;28;20273;-66
2022/11/24 07:52:14;;;;;;;10.63;3.30;;;6.80;99.90;;;;;;5040460;28;20591;-66
2022/11/24 07:54:40;;;;;;;7.20;3.07;;;6.80;99.90;;;;;;5039114;28;20182;-67
2022/11/24 07:57:05;;;;;;;11.87;3.47;;;6.70;99.90;;;;;;5039630;28;20202;-67
2022/11/24 07:59:31;;;;;;;15.77;3.23;;;6.70;99.90;;;;;;5030300;28;20182;-66
2022/11/24 08:01:56;;;;;;;5.67;2.67;;;6.70;99.90;;;;;;5035655;28;20206;-67
2022/11/24 08:04:22;;;;;;;9.63;2.90;;;6.70;99.90;;;;;;5040827;28;20186;-67
2022/11/24 08:06:47;;;;;;;9.60;4.37;;;6.70;99.90;;;;;;5043394;28;20186;-65
2022/11/24 08:09:13;;;;;;;9.80;3.60;;;6.80;99.90;;;;;;5026390;28;20184;-68
2022/11/24 08:11:38;;;;;;;13.30;2.97;;;6.80;99.90;;;;;;5038899;28;20623;-67
2022/11/24 08:14:04;;;;;;;9.90;4.33;;;6.80;99.90;;;;;;5027050;28;20264;-68
2022/11/24 08:16:30;;;;;;;5.97;3.33;;;6.70;99.90;;;;;;5041492;28;20228;-68
2022/11/24 08:18:56;;;;;;;4.00;1.93;;;6.70;99.90;;;;;;5029065;28;20636;-70
2022/11/24 08:21:22;;;;;;;11.40;3.43;;;6.70;99.90;;;;;;5015981;28;20529;-69
2022/11/24 08:23:48;;;;;;;8.53;2.53;;;6.70;99.90;;;;;;5030684;28;20190;-69
2022/11/24 08:26:17;;;;;;;9.17;1.73;;;6.70;99.90;;;;;;5033200;28;20972;-70
2022/11/24 08:28:44;;;;;;;5.77;2.40;;;6.70;99.90;;;;;;5026654;28;20503;-68
2022/11/24 08:31:12;;;;;;;5.50;1.60;;;6.70;99.90;;;;;;5024709;28;20539;-69
2022/11/24 08:33:39;;;;;;;6.40;2.03;;;6.70;99.90;;;;;;5041147;28;20530;-68
2022/11/24 08:36:10;;;;;;;5.20;1.63;;;6.80;99.90;;;;;;5042914;28;20441;-68
2022/11/24 08:38:36;;;;;;;6.60;2.30;;;6.80;99.90;;;;;;5044398;28;20795;-68
2022/11/24 08:41:04;;;;;;;5.27;1.83;;;6.80;99.90;;;;;;5048398;28;20433;-68
2022/11/24 08:43:30;;;;;;;4.70;1.17;;;6.80;99.90;;;;;;5041913;28;20205;-68
2022/11/24 08:45:59;;;;;;;3.67;1.20;;;6.80;99.90;;;;;;5027942;28;20436;-68
2022/11/24 08:48:25;;;;;;;2.87;1.60;;;6.80;99.90;;;;;;5046328;28;20447;-68
2022/11/24 08:50:50;;;;;;;3.40;1.80;;;6.80;99.90;;;;;;5035858;28;20448;-68
2022/11/24 08:53:16;;;;;;;5.67;1.87;;;6.80;99.90;;;;;;5045376;28;20205;-69
2022/11/24 08:55:41;;;;;;;4.03;2.30;;;6.80;99.90;;;;;;5030354;28;20178;-68
2022/11/24 08:58:07;;;;;;;2.70;1.80;;;6.80;99.90;;;;;;5034491;28;20683;-68
2022/11/24 09:00:32;;;;;;;2.97;1.57;;;6.80;99.90;;;;;;5027571;28;20202;-68
2022/11/24 09:02:58;;;;;;;3.90;1.33;;;6.90;99.90;;;;;;5040199;28;20655;-69
2022/11/24 09:05:24;;;;;;;4.07;2.00;;;7.00;99.90;;;;;;5029779;28;20539;-68
2022/11/24 09:07:50;;;;;;;3.23;1.70;;;7.10;99.90;;;;;;5040819;28;20268;-67
2022/11/24 09:10:16;;;;;;;6.70;3.63;;;7.20;99.90;;;;;;5030377;28;20512;-68
2022/11/24 09:12:44;;;;;;;1.70;1.30;;;7.30;99.90;;;;;;5036604;28;20221;-67
2022/11/24 09:15:10;;;;;;;3.23;1.83;;;7.30;99.90;;;;;;5043666;28;20193;-68
2022/11/24 09:17:35;;;;;;;4.40;2.10;;;7.30;99.90;;;;;;5032570;28;20827;-68
2022/11/24 09:20:03;;;;;;;1.33;0.83;;;7.30;99.90;;;;;;5037975;28;20647;-68
2022/11/24 09:22:30;;;;;;;2.03;0.90;;;7.30;99.90;;;;;;5033155;28;20197;-68
2022/11/24 09:24:55;;;;;;;3.17;1.10;;;7.20;99.90;;;;;;5038653;28;20937;-67
2022/11/24 09:27:21;;;;;;;2.30;1.00;;;7.20;99.90;;;;;;5027043;28;20449;-68
2022/11/24 09:29:46;;;;;;;1.33;0.93;;;7.20;99.90;;;;;;5028462;28;20252;-67
2022/11/24 09:32:12;;;;;;;5.00;1.90;;;7.30;99.90;;;;;;5034800;28;20194;-68
2022/11/24 09:34:38;;;;;;;2.40;0.87;;;7.20;99.90;;;;;;5041658;28;20184;-68
2022/11/24 09:37:03;;;;;;;1.53;1.07;;;7.20;99.90;;;;;;5032972;28;20201;-68
2022/11/24 09:39:29;;;;;;;2.70;2.10;;;7.20;99.90;;;;;;5030676;28;20173;-68
2022/11/24 09:42:15;;;;;;;1.80;1.67;;;7.20;99.90;;;;;;5035165;28;20189;-68
2022/11/24 09:44:47;;;;;;;1.00;0.80;;;7.10;99.90;;;;;;5035144;28;20186;-68
2022/11/24 09:47:37;;;;;;;3.23;1.23;;;7.10;99.90;;;;;;5031633;28;20479;-68
2022/11/24 09:50:23;;;;;;;1.70;0.83;;;7.20;99.90;;;;;;5031505;28;20641;-68
2022/11/24 09:52:49;;;;;;;3.17;2.17;;;7.30;99.90;;;;;;5029835;28;20542;-68
2022/11/24 09:55:46;;;;;;;5.20;1.50;;;7.40;99.90;;;;;;5037367;28;20511;-69
2022/11/24 09:58:35;;;;;;;7.20;1.73;;;7.50;99.90;;;;;;5037167;28;20169;-69
2022/11/24 10:01:06;;;;;;;3.27;2.70;;;7.50;99.90;;;;;;5035609;28;20437;-69
2022/11/24 10:03:39;;;;;;;2.87;1.87;;;7.50;99.90;;;;;;5032037;28;20441;-67
2022/11/24 10:06:23;;;;;;;12.77;7.07;;;7.60;99.90;;;;;;5033669;28;20541;-68
2022/11/24 10:09:23;;;;;;;1.80;1.20;;;7.60;99.90;;;;;;5033724;28;20441;-68
2022/11/24 10:11:55;;;;;;;1.93;1.33;;;7.80;99.90;;;;;;5020272;28;20472;-68
2022/11/24 10:14:45;;;;;;;2.77;0.87;;;8.90;99.90;;;;;;5036771;28;22157;-68
2022/11/24 10:17:21;;;;;;;1.20;1.03;;;10.80;99.90;;;;;;5024586;28;20486;-68
2022/11/24 10:20:12;;;;;;;1.63;0.90;;;12.70;99.90;;;;;;5033339;28;20454;-68
2022/11/24 10:22:52;;;;;;;4.63;0.90;;;15.10;99.90;;;;;;5021354;28;20468;-69
2022/11/24 10:25:21;;;;;;;0.73;0.70;;;16.40;99.90;;;;;;5029349;28;20447;-69
2022/11/24 10:27:58;;;;;;;2.00;1.33;;;18.20;99.90;;;;;;5037125;28;20435;-69
2022/11/24 10:30:25;;;;;;;1.17;1.07;;;19.80;99.90;;;;;;5022967;28;20519;-66
2022/11/24 10:32:57;;;;;;;1.37;1.07;;;20.30;99.90;;;;;;5029550;28;20475;-65
2022/11/24 10:35:59;;;;;;;1.83;1.37;;;18.60;99.90;;;;;;5029137;28;20523;-66
2022/11/24 10:38:34;;;;;;;1.10;1.00;;;16.50;99.90;;;;;;5028076;28;20490;-65
2022/11/24 10:41:09;;;;;;;3.80;3.17;;;14.90;99.90;;;;;;5036691;28;20442;-66
2022/11/24 10:43:34;;;;;;;2.20;1.70;;;13.40;99.90;;;;;;5030747;28;20440;-68
2022/11/24 10:46:25;;;;;;;3.50;1.63;;;12.40;99.90;;;;;;5038801;28;20474;-68
2022/11/24 10:48:59;;;;;;;5.17;1.97;;;11.70;99.90;;;;;;5030251;28;20189;-67
2022/11/24 10:51:32;;;;;;;2.63;1.20;;;11.20;99.90;;;;;;5040375;28;20998;-68
2022/11/24 10:54:24;;;;;;;2.60;1.30;;;11.40;99.90;;;;;;5039924;28;20468;-66
2022/11/24 10:56:51;;;;;;;1.27;0.87;;;13.40;99.90;;;;;;5032358;28;20522;-65
2022/11/24 10:59:23;;;;;;;1.13;1.03;;;14.70;99.90;;;;;;5032780;28;20527;-68
2022/11/24 11:01:50;;;;;;;2.00;1.13;;;14.30;99.90;;;;;;5032470;28;20460;-68
2022/11/24 11:04:28;;;;;;;2.37;1.20;;;13.30;99.90;;;;;;5034391;28;20448;-68
2022/11/24 11:07:19;;;;;;;1.13;0.90;;;12.20;99.90;;;;;;5036808;28;20531;-68
2022/11/24 11:09:46;;;;;;;1.73;0.80;;;11.50;99.90;;;;;;5030875;28;20459;-69
2022/11/24 11:12:26;;;;;;;1.50;0.90;;;11.20;99.90;;;;;;5031630;28;20876;-66
2022/11/24 11:14:51;;;;;;;1.63;1.00;;;11.50;99.90;;;;;;5032833;28;20447;-67
2022/11/24 11:17:37;;;;;;;1.37;0.97;;;12.90;99.90;;;;;;5024520;28;20864;-68
2022/11/24 11:20:24;;;;;;;1.03;0.93;;;16.10;99.90;;;;;;5027062;28;20595;-68
2022/11/24 11:22:50;;;;;;;1.70;1.60;;;17.90;99.90;;;;;;5012969;28;20516;-68
2022/11/24 11:25:28;;;;;;;1.60;1.10;;;19.20;99.90;;;;;;5027104;28;20438;-68
2022/11/24 11:28:16;;;;;;;2.07;1.30;;;21.10;98.30;;;;;;5034144;28;20227;-67
2022/11/24 11:30:59;;;;;;;4.33;1.20;;;22.30;92.00;;;;;;5032237;28;20952;-67
2022/11/24 11:33:30;;;;;;;3.60;1.13;;;23.60;89.00;;;;;;5031138;28;20472;-67
2022/11/24 11:35:57;;;;;;;1.73;1.30;;;25.50;76.90;;;;;;5031711;28;21042;-68
2022/11/24 11:38:25;;;;;;;3.30;2.27;;;24.80;70.40;;;;;;5032185;28;20953;-66
2022/11/24 11:40:52;;;;;;;2.30;1.50;;;23.70;70.80;;;;;;5030986;28;20458;-67
2022/11/24 11:43:25;;;;;;;1.83;1.27;;;21.30;76.90;;;;;;5029302;28;20503;-67
2022/11/24 11:46:12;;;;;;;2.43;1.50;;;21.20;85.60;;;;;;5033388;28;20510;-68
2022/11/24 11:48:43;;;;;;;2.37;2.17;;;20.30;82.80;;;;;;5032585;28;21167;-67
2022/11/24 11:51:09;;;;;;;4.43;2.30;;;18.60;92.60;;;;;;5029270;28;20492;-67
2022/11/24 11:53:44;;;;;;;3.17;1.67;;;17.50;98.10;;;;;;5028734;28;20499;-67
2022/11/24 11:56:25;;;;;;;5.33;1.83;;;16.90;99.90;;;;;;5028017;28;20185;-67
2022/11/24 11:59:33;;;;;;;3.80;1.80;;;16.40;99.90;;;;;;5027843;28;20436;-67
2022/11/24 12:02:30;;;;;;;1.70;1.10;;;15.70;99.90;;;;;;5043036;28;20840;-67
2022/11/24 12:04:59;;;;;;;1.83;1.43;;;14.90;99.90;;;;;;5018299;28;20471;-68
2022/11/24 12:07:47;;;;;;;2.60;1.90;;;14.70;99.90;;;;;;5042026;28;20486;-66
2022/11/24 12:10:40;;;;;;;2.17;1.43;;;14.20;99.90;;;;;;5038417;28;20455;-67
2022/11/24 12:13:30;;;;;;;1.63;1.50;;;13.20;99.90;;;;;;5028997;28;20472;-68
2022/11/24 12:16:02;;;;;;;2.53;1.30;;;13.00;99.90;;;;;;5037401;28;20850;-67
2022/11/24 12:18:58;;;;;;;3.70;2.60;;;14.10;99.90;;;;;;5033871;28;20437;-67
2022/11/24 12:21:37;;;;;;;2.83;1.50;;;13.90;99.90;;;;;;5034166;28;20982;-67
2022/11/24 12:24:31;;;;;;;5.50;1.50;;;13.60;99.90;;;;;;5034018;28;20437;-67
2022/11/24 12:27:19;;;;;;;2.77;1.77;;;12.90;99.90;;;;;;5030611;28;20444;-67
2022/11/24 12:29:50;;;;;;;4.13;1.33;;;12.30;99.90;;;;;;5037714;28;20477;-67
2022/11/24 12:32:43;;;;;;;3.60;1.50;;;12.00;99.90;;;;;;5036117;28;21047;-66
2022/11/24 12:35:27;;;;;;;4.90;2.33;;;11.70;99.90;;;;;;5035436;28;20491;-67
2022/11/24 12:38:37;;;;;;;2.50;1.40;;;12.90;99.90;;;;;;5038162;28;20535;-67
2022/11/24 12:41:34;;;;;;;2.63;1.90;;;16.70;99.90;;;;;;5010743;28;20451;-67
2022/11/24 12:44:00;;;;;;;5.13;1.67;;;18.10;99.90;;;;;;5032544;28;20436;-67
2022/11/24 12:46:50;;;;;;;2.80;1.80;;;16.50;99.90;;;;;;5037403;28;20445;-66
2022/11/24 12:49:31;;;;;;;3.70;1.77;;;15.60;99.90;;;;;;5029972;28;20476;-67
2022/11/24 12:52:36;;;;;;;6.10;1.73;;;14.30;99.90;;;;;;5033224;28;20463;-67
2022/11/24 12:55:03;;;;;;;3.23;1.80;;;13.80;99.90;;;;;;5042802;28;20467;-67
2022/11/24 12:57:35;;;;;;;1.83;1.33;;;13.90;99.90;;;;;;5039876;28;20436;-68
2022/11/24 13:00:14;;;;;;;2.90;1.43;;;13.50;99.90;;;;;;5032002;28;20433;-67
2022/11/24 13:03:04;;;;;;;5.03;1.60;;;14.00;99.90;;;;;;5028300;28;20463;-67
2022/11/24 13:05:38;;;;;;;4.73;1.90;;;14.30;99.90;;;;;;5039145;28;20462;-67
2022/11/24 13:08:04;;;;;;;6.60;2.60;;;16.40;99.90;;;;;;5033069;28;20972;-66
2022/11/24 13:10:36;;;;;;;2.70;2.20;;;19.20;94.80;;;;;;5041546;28;20432;-67